sensor_id;sensor_type;location;lat;lon;timestamp;pressure;altitude;pressure_sealevel;temperature;humidity
59103;BME280;43999;51.660;5.616;2022-07-29T00:01:08;101483.06;;;17.96;61.90
59103;BME280;43999;51.660;5.616;2022-07-29T00:03:45;101482.31;;;17.94;61.84
59103;BME280;43999;51.660;5.616;2022-07-29T00:06:14;101477.13;;;17.92;62.43
59103;BME280;43999;51.660;5.616;2022-07-29T00:08:42;101476.50;;;17.88;61.87
59103;BME280;43999;51.660;5.616;2022-07-29T00:11:09;101475.56;;;17.89;61.88
59103;BME280;43999;51.660;5.616;2022-07-29T00:13:36;101471.22;;;17.88;62.38
59103;BME280;43999;51.660;5.616;2022-07-29T00:16:04;101473.00;;;17.88;61.90
59103;BME280;43999;51.660;5.616;2022-07-29T00:18:32;101469.47;;;17.87;62.04
59103;BME280;43999;51.660;5.616;2022-07-29T00:20:59;101474.78;;;17.87;62.85
59103;BME280;43999;51.660;5.616;2022-07-29T00:23:27;101471.28;;;17.87;62.08
59103;BME280;43999;51.660;5.616;2022-07-29T00:25:55;101473.13;;;17.86;62.26
59103;BME280;43999;51.660;5.616;2022-07-29T00:28:22;101468.56;;;17.88;62.19
59103;BME280;43999;51.660;5.616;2022-07-29T00:30:50;101466.94;;;17.86;62.36
59103;BME280;43999;51.660;5.616;2022-07-29T00:33:17;101471.41;;;17.85;62.52
59103;BME280;43999;51.660;5.616;2022-07-29T00:35:44;101472.38;;;17.84;62.65
59103;BME280;43999;51.660;5.616;2022-07-29T00:38:15;101466.34;;;17.82;62.60
59103;BME280;43999;51.660;5.616;2022-07-29T00:40:46;101446.94;;;17.82;63.36
59103;BME280;43999;51.660;5.616;2022-07-29T00:43:14;101462.09;;;17.80;63.26
59103;BME280;43999;51.660;5.616;2022-07-29T00:45:42;101456.06;;;17.78;63.64
59103;BME280;43999;51.660;5.616;2022-07-29T00:48:10;101461.59;;;17.74;64.03
59103;BME280;43999;51.660;5.616;2022-07-29T00:50:37;101455.59;;;17.72;64.00
59103;BME280;43999;51.660;5.616;2022-07-29T00:53:08;101461.94;;;17.70;63.95
59103;BME280;43999;51.660;5.616;2022-07-29T00:55:38;101464.59;;;17.70;63.92
59103;BME280;43999;51.660;5.616;2022-07-29T00:58:06;101468.09;;;17.70;63.95
59103;BME280;43999;51.660;5.616;2022-07-29T01:00:34;101465.56;;;17.69;64.29
59103;BME280;43999;51.660;5.616;2022-07-29T01:03:01;101474.38;;;17.69;63.75
59103;BME280;43999;51.660;5.616;2022-07-29T01:05:30;101472.44;;;17.71;64.24
59103;BME280;43999;51.660;5.616;2022-07-29T01:08:18;101478.81;;;17.69;64.58
59103;BME280;43999;51.660;5.616;2022-07-29T01:10:47;101484.22;;;17.67;64.14
59103;BME280;43999;51.660;5.616;2022-07-29T01:13:16;101488.44;;;17.70;64.20
59103;BME280;43999;51.660;5.616;2022-07-29T01:15:49;101492.91;;;17.69;64.48
59103;BME280;43999;51.660;5.616;2022-07-29T01:18:34;101510.00;;;17.65;64.20
59103;BME280;43999;51.660;5.616;2022-07-29T01:24:50;101523.25;;;17.65;64.53
59103;BME280;43999;51.660;5.616;2022-07-29T01:27:22;101515.19;;;17.67;64.46
59103;BME280;43999;51.660;5.616;2022-07-29T01:30:01;101501.69;;;17.70;64.68
59103;BME280;43999;51.660;5.616;2022-07-29T01:32:36;101511.47;;;17.69;64.11
59103;BME280;43999;51.660;5.616;2022-07-29T01:35:26;101506.88;;;17.71;64.21
59103;BME280;43999;51.660;5.616;2022-07-29T01:38:17;101490.88;;;17.73;64.84
59103;BME280;43999;51.660;5.616;2022-07-29T01:41:05;101490.88;;;17.73;65.35
59103;BME280;43999;51.660;5.616;2022-07-29T01:43:56;101476.91;;;17.71;65.78
59103;BME280;43999;51.660;5.616;2022-07-29T01:46:35;101475.31;;;17.68;65.96
59103;BME280;43999;51.660;5.616;2022-07-29T01:49:14;101475.44;;;17.67;65.98
59103;BME280;43999;51.660;5.616;2022-07-29T01:52:00;101455.28;;;17.64;66.47
59103;BME280;43999;51.660;5.616;2022-07-29T01:54:38;101434.31;;;17.61;66.34
59103;BME280;43999;51.660;5.616;2022-07-29T01:57:15;101421.28;;;17.58;67.06
59103;BME280;43999;51.660;5.616;2022-07-29T01:59:47;101419.09;;;17.52;67.67
59103;BME280;43999;51.660;5.616;2022-07-29T02:02:18;101415.22;;;17.45;68.46
59103;BME280;43999;51.660;5.616;2022-07-29T02:04:48;101408.78;;;17.36;70.30
59103;BME280;43999;51.660;5.616;2022-07-29T02:07:20;101408.63;;;17.26;70.61
59103;BME280;43999;51.660;5.616;2022-07-29T02:09:50;101410.25;;;17.16;72.44
59103;BME280;43999;51.660;5.616;2022-07-29T02:12:20;101404.28;;;17.01;75.78
59103;BME280;43999;51.660;5.616;2022-07-29T02:14:53;101397.63;;;16.82;77.59
59103;BME280;43999;51.660;5.616;2022-07-29T02:17:33;101395.44;;;16.63;80.17
59103;BME280;43999;51.660;5.616;2022-07-29T02:20:08;101402.00;;;16.45;80.90
59103;BME280;43999;51.660;5.616;2022-07-29T02:22:38;101401.41;;;16.28;83.18
59103;BME280;43999;51.660;5.616;2022-07-29T02:25:08;101395.47;;;16.12;83.97
59103;BME280;43999;51.660;5.616;2022-07-29T02:27:41;101400.00;;;15.97;85.71
59103;BME280;43999;51.660;5.616;2022-07-29T02:30:10;101393.75;;;15.85;87.96
59103;BME280;43999;51.660;5.616;2022-07-29T02:32:40;101387.19;;;15.78;89.23
59103;BME280;43999;51.660;5.616;2022-07-29T02:35:10;101397.28;;;15.71;89.90
59103;BME280;43999;51.660;5.616;2022-07-29T02:37:41;101396.75;;;15.66;90.04
59103;BME280;43999;51.660;5.616;2022-07-29T02:40:12;101390.81;;;15.63;91.50
59103;BME280;43999;51.660;5.616;2022-07-29T02:42:43;101397.28;;;15.58;92.87
59103;BME280;43999;51.660;5.616;2022-07-29T02:45:13;101390.38;;;15.56;94.09
59103;BME280;43999;51.660;5.616;2022-07-29T02:47:47;101379.38;;;15.49;96.00
59103;BME280;43999;51.660;5.616;2022-07-29T02:50:23;101383.38;;;15.42;96.30
59103;BME280;43999;51.660;5.616;2022-07-29T02:55:56;101368.44;;;15.28;97.93
59103;BME280;43999;51.660;5.616;2022-07-29T02:58:35;101369.47;;;15.26;98.78
59103;BME280;43999;51.660;5.616;2022-07-29T03:01:20;101359.22;;;15.21;99.41
59103;BME280;43999;51.660;5.616;2022-07-29T03:03:53;101368.28;;;15.17;100.00
59103;BME280;43999;51.660;5.616;2022-07-29T03:06:24;101365.94;;;15.12;100.00
59103;BME280;43999;51.660;5.616;2022-07-29T03:09:07;101371.63;;;15.06;100.00
59103;BME280;43999;51.660;5.616;2022-07-29T03:11:41;101379.75;;;15.03;100.00
59103;BME280;43999;51.660;5.616;2022-07-29T03:14:18;101376.13;;;15.04;100.00
59103;BME280;43999;51.660;5.616;2022-07-29T03:16:48;101378.03;;;15.02;100.00
59103;BME280;43999;51.660;5.616;2022-07-29T03:19:17;101372.94;;;14.99;100.00
59103;BME280;43999;51.660;5.616;2022-07-29T03:21:46;101381.81;;;14.98;100.00
59103;BME280;43999;51.660;5.616;2022-07-29T03:24:34;101380.13;;;14.97;100.00
59103;BME280;43999;51.660;5.616;2022-07-29T03:27:04;101385.50;;;14.95;100.00
59103;BME280;43999;51.660;5.616;2022-07-29T03:29:33;101388.44;;;14.91;100.00
59103;BME280;43999;51.660;5.616;2022-07-29T03:32:05;101396.66;;;14.86;100.00
59103;BME280;43999;51.660;5.616;2022-07-29T03:34:36;101390.59;;;14.84;100.00
59103;BME280;43999;51.660;5.616;2022-07-29T03:37:05;101386.09;;;14.86;100.00
59103;BME280;43999;51.660;5.616;2022-07-29T03:39:38;101380.81;;;14.86;100.00
59103;BME280;43999;51.660;5.616;2022-07-29T03:42:12;101383.66;;;14.83;100.00
59103;BME280;43999;51.660;5.616;2022-07-29T03:44:45;101386.56;;;14.78;100.00
59103;BME280;43999;51.660;5.616;2022-07-29T03:47:18;101387.69;;;14.74;100.00
59103;BME280;43999;51.660;5.616;2022-07-29T03:50:11;101394.78;;;14.74;100.00
59103;BME280;43999;51.660;5.616;2022-07-29T03:52:42;101395.59;;;14.74;100.00
59103;BME280;43999;51.660;5.616;2022-07-29T03:55:12;101395.50;;;14.76;100.00
59103;BME280;43999;51.660;5.616;2022-07-29T03:57:42;101402.31;;;14.80;100.00
59103;BME280;43999;51.660;5.616;2022-07-29T04:00:12;101403.13;;;14.80;100.00
59103;BME280;43999;51.660;5.616;2022-07-29T04:02:43;101405.88;;;14.79;100.00
59103;BME280;43999;51.660;5.616;2022-07-29T04:05:17;101412.00;;;14.79;100.00
59103;BME280;43999;51.660;5.616;2022-07-29T04:07:47;101408.41;;;14.80;100.00
59103;BME280;43999;51.660;5.616;2022-07-29T04:10:16;101414.44;;;14.82;100.00
59103;BME280;43999;51.660;5.616;2022-07-29T04:12:59;101406.22;;;14.87;100.00
59103;BME280;43999;51.660;5.616;2022-07-29T04:15:26;101405.94;;;14.92;100.00
59103;BME280;43999;51.660;5.616;2022-07-29T04:17:58;101402.47;;;14.91;100.00
59103;BME280;43999;51.660;5.616;2022-07-29T04:20:26;101404.28;;;14.91;100.00
59103;BME280;43999;51.660;5.616;2022-07-29T04:22:53;101398.22;;;14.88;100.00
59103;BME280;43999;51.660;5.616;2022-07-29T04:25:21;101398.41;;;14.85;100.00
59103;BME280;43999;51.660;5.616;2022-07-29T04:27:48;101393.91;;;14.87;100.00
59103;BME280;43999;51.660;5.616;2022-07-29T04:30:29;101396.75;;;14.84;100.00
59103;BME280;43999;51.660;5.616;2022-07-29T04:32:58;101404.66;;;14.84;100.00
59103;BME280;43999;51.660;5.616;2022-07-29T04:35:26;101398.50;;;14.84;100.00
59103;BME280;43999;51.660;5.616;2022-07-29T04:37:53;101394.94;;;14.85;100.00
59103;BME280;43999;51.660;5.616;2022-07-29T04:40:21;101401.16;;;14.84;100.00
59103;BME280;43999;51.660;5.616;2022-07-29T04:42:48;101402.00;;;14.84;100.00
59103;BME280;43999;51.660;5.616;2022-07-29T04:45:15;101407.28;;;14.84;100.00
59103;BME280;43999;51.660;5.616;2022-07-29T04:47:49;101407.94;;;14.88;100.00
59103;BME280;43999;51.660;5.616;2022-07-29T04:50:17;101400.13;;;14.86;100.00
59103;BME280;43999;51.660;5.616;2022-07-29T04:52:44;101407.84;;;14.90;100.00
59103;BME280;43999;51.660;5.616;2022-07-29T04:55:11;101413.41;;;14.85;100.00
59103;BME280;43999;51.660;5.616;2022-07-29T04:57:39;101420.47;;;14.84;100.00
59103;BME280;43999;51.660;5.616;2022-07-29T05:00:07;101424.88;;;14.84;100.00
59103;BME280;43999;51.660;5.616;2022-07-29T05:02:36;101430.16;;;14.84;100.00
59103;BME280;43999;51.660;5.616;2022-07-29T05:05:03;101442.53;;;14.83;100.00
59103;BME280;43999;51.660;5.616;2022-07-29T05:07:31;101429.25;;;14.85;100.00
59103;BME280;43999;51.660;5.616;2022-07-29T05:09:58;101434.31;;;14.88;100.00
59103;BME280;43999;51.660;5.616;2022-07-29T05:12:26;101433.38;;;14.89;100.00
59103;BME280;43999;51.660;5.616;2022-07-29T05:14:54;101435.94;;;14.91;100.00
59103;BME280;43999;51.660;5.616;2022-07-29T05:17:21;101442.03;;;14.91;100.00
59103;BME280;43999;51.660;5.616;2022-07-29T05:19:49;101441.94;;;14.93;100.00
59103;BME280;43999;51.660;5.616;2022-07-29T05:22:19;101442.59;;;14.96;100.00
59103;BME280;43999;51.660;5.616;2022-07-29T05:24:47;101438.94;;;14.99;100.00
59103;BME280;43999;51.660;5.616;2022-07-29T05:27:14;101448.44;;;15.01;100.00
59103;BME280;43999;51.660;5.616;2022-07-29T05:29:42;101446.66;;;15.02;100.00
59103;BME280;43999;51.660;5.616;2022-07-29T05:32:14;101447.50;;;15.02;100.00
59103;BME280;43999;51.660;5.616;2022-07-29T05:34:43;101444.75;;;15.04;100.00
59103;BME280;43999;51.660;5.616;2022-07-29T05:37:19;101435.72;;;15.08;100.00
59103;BME280;43999;51.660;5.616;2022-07-29T05:39:47;101434.69;;;15.11;100.00
59103;BME280;43999;51.660;5.616;2022-07-29T05:42:24;101435.50;;;15.11;100.00
59103;BME280;43999;51.660;5.616;2022-07-29T05:44:53;101454.09;;;15.10;100.00
59103;BME280;43999;51.660;5.616;2022-07-29T05:47:20;101456.81;;;15.08;100.00
59103;BME280;43999;51.660;5.616;2022-07-29T05:49:48;101457.66;;;15.09;100.00
59103;BME280;43999;51.660;5.616;2022-07-29T05:52:16;101464.44;;;15.13;100.00
59103;BME280;43999;51.660;5.616;2022-07-29T05:54:43;101450.31;;;15.14;100.00
59103;BME280;43999;51.660;5.616;2022-07-29T05:57:20;101448.22;;;15.19;100.00
59103;BME280;43999;51.660;5.616;2022-07-29T05:59:50;101457.94;;;15.18;100.00
59103;BME280;43999;51.660;5.616;2022-07-29T06:02:18;101458.03;;;15.17;100.00
59103;BME280;43999;51.660;5.616;2022-07-29T06:04:45;101458.97;;;15.16;100.00
59103;BME280;43999;51.660;5.616;2022-07-29T06:07:13;101457.19;;;15.16;100.00
59103;BME280;43999;51.660;5.616;2022-07-29T06:09:40;101463.31;;;15.17;100.00
59103;BME280;43999;51.660;5.616;2022-07-29T06:12:07;101463.41;;;15.15;100.00
59103;BME280;43999;51.660;5.616;2022-07-29T06:14:35;101453.69;;;15.16;100.00
59103;BME280;43999;51.660;5.616;2022-07-29T06:17:02;101455.31;;;15.18;100.00
59103;BME280;43999;51.660;5.616;2022-07-29T06:19:30;101461.31;;;15.20;100.00
59103;BME280;43999;51.660;5.616;2022-07-29T06:21:57;101460.41;;;15.21;100.00
59103;BME280;43999;51.660;5.616;2022-07-29T06:24:25;101453.13;;;15.25;100.00
59103;BME280;43999;51.660;5.616;2022-07-29T06:26:52;101453.84;;;15.27;100.00
59103;BME280;43999;51.660;5.616;2022-07-29T06:29:19;101459.81;;;15.31;99.50
59103;BME280;43999;51.660;5.616;2022-07-29T06:31:47;101463.94;;;15.35;100.00
59103;BME280;43999;51.660;5.616;2022-07-29T06:34:14;101452.31;;;15.37;99.74
59103;BME280;43999;51.660;5.616;2022-07-29T06:36:43;101461.66;;;15.43;99.08
59103;BME280;43999;51.660;5.616;2022-07-29T06:39:12;101454.38;;;15.47;99.13
59103;BME280;43999;51.660;5.616;2022-07-29T06:41:39;101455.00;;;15.50;99.18
59103;BME280;43999;51.660;5.616;2022-07-29T06:44:09;101445.84;;;15.56;99.21
59103;BME280;43999;51.660;5.616;2022-07-29T06:46:36;101458.75;;;15.60;98.37
59103;BME280;43999;51.660;5.616;2022-07-29T06:49:05;101461.09;;;15.65;99.08
59103;BME280;43999;51.660;5.616;2022-07-29T06:51:33;101460.59;;;15.73;98.71
59103;BME280;43999;51.660;5.616;2022-07-29T06:54:00;101456.75;;;15.79;98.73
59103;BME280;43999;51.660;5.616;2022-07-29T06:56:35;101453.56;;;15.86;98.27
59103;BME280;43999;51.660;5.616;2022-07-29T06:59:08;101455.81;;;15.92;97.91
59103;BME280;43999;51.660;5.616;2022-07-29T07:01:40;101457.72;;;16.03;96.50
59103;BME280;43999;51.660;5.616;2022-07-29T07:04:11;101464.31;;;16.10;94.94
59103;BME280;43999;51.660;5.616;2022-07-29T07:06:39;101467.28;;;16.19;93.47
59103;BME280;43999;51.660;5.616;2022-07-29T07:09:06;101464.53;;;16.20;94.05
59103;BME280;43999;51.660;5.616;2022-07-29T07:11:34;101460.84;;;16.23;94.29
59103;BME280;43999;51.660;5.616;2022-07-29T07:14:01;101463.16;;;16.27;94.21
59103;BME280;43999;51.660;5.616;2022-07-29T07:16:31;101460.09;;;16.34;93.21
59103;BME280;43999;51.660;5.616;2022-07-29T07:18:59;101461.69;;;16.36;94.11
59103;BME280;43999;51.660;5.616;2022-07-29T07:21:27;101457.03;;;16.40;93.25
59103;BME280;43999;51.660;5.616;2022-07-29T07:23:57;101461.06;;;16.45;93.79
59103;BME280;43999;51.660;5.616;2022-07-29T07:26:26;101465.06;;;16.51;94.08
59103;BME280;43999;51.660;5.616;2022-07-29T07:28:54;101460.00;;;16.61;92.34
59103;BME280;43999;51.660;5.616;2022-07-29T07:31:21;101465.94;;;16.64;92.11
59103;BME280;43999;51.660;5.616;2022-07-29T07:33:49;101457.97;;;16.64;91.80
59103;BME280;43999;51.660;5.616;2022-07-29T07:36:16;101457.66;;;16.69;92.39
59103;BME280;43999;51.660;5.616;2022-07-29T07:38:43;101459.88;;;16.75;92.50
59103;BME280;43999;51.660;5.616;2022-07-29T07:41:10;101466.56;;;16.81;91.20
59103;BME280;43999;51.660;5.616;2022-07-29T07:43:38;101474.38;;;16.82;89.79
59103;BME280;43999;51.660;5.616;2022-07-29T07:46:05;101476.50;;;16.77;89.76
59103;BME280;43999;51.660;5.616;2022-07-29T07:48:32;101473.94;;;16.76;91.15
59103;BME280;43999;51.660;5.616;2022-07-29T07:51:01;101475.75;;;16.75;91.31
59103;BME280;43999;51.660;5.616;2022-07-29T07:53:29;101479.13;;;16.77;91.85
59103;BME280;43999;51.660;5.616;2022-07-29T07:55:58;101477.97;;;16.81;91.23
59103;BME280;43999;51.660;5.616;2022-07-29T07:58:41;101476.06;;;16.83;90.11
59103;BME280;43999;51.660;5.616;2022-07-29T08:01:09;101471.63;;;16.84;90.00
59103;BME280;43999;51.660;5.616;2022-07-29T08:03:37;101477.69;;;16.86;90.63
59103;BME280;43999;51.660;5.616;2022-07-29T08:06:05;101485.63;;;16.86;91.26
59103;BME280;43999;51.660;5.616;2022-07-29T08:08:33;101488.78;;;16.91;90.11
59103;BME280;43999;51.660;5.616;2022-07-29T08:11:00;101488.56;;;16.94;90.29
59103;BME280;43999;51.660;5.616;2022-07-29T08:13:35;101491.88;;;16.98;91.15
59103;BME280;43999;51.660;5.616;2022-07-29T08:16:04;101497.47;;;17.06;90.91
59103;BME280;43999;51.660;5.616;2022-07-29T08:18:43;101497.88;;;17.13;90.51
59103;BME280;43999;51.660;5.616;2022-07-29T08:21:13;101501.88;;;17.18;90.27
59103;BME280;43999;51.660;5.616;2022-07-29T08:23:44;101494.56;;;17.22;89.64
59103;BME280;43999;51.660;5.616;2022-07-29T08:26:25;101497.16;;;17.35;88.38
59103;BME280;43999;51.660;5.616;2022-07-29T08:28:53;101501.34;;;17.50;88.13
59103;BME280;43999;51.660;5.616;2022-07-29T08:31:20;101494.47;;;17.72;88.95
59103;BME280;43999;51.660;5.616;2022-07-29T08:33:47;101486.31;;;17.99;88.63
59103;BME280;43999;51.660;5.616;2022-07-29T08:36:15;101495.97;;;18.36;86.72
59103;BME280;43999;51.660;5.616;2022-07-29T08:38:42;101495.25;;;18.79;86.10
59103;BME280;43999;51.660;5.616;2022-07-29T08:41:10;101493.84;;;19.20;83.15
59103;BME280;43999;51.660;5.616;2022-07-29T08:43:39;101502.56;;;19.66;82.98
59103;BME280;43999;51.660;5.616;2022-07-29T08:46:07;101489.34;;;20.08;79.22
59103;BME280;43999;51.660;5.616;2022-07-29T08:48:36;101489.47;;;20.49;77.26
59103;BME280;43999;51.660;5.616;2022-07-29T08:51:03;101480.72;;;20.89;75.07
59103;BME280;43999;51.660;5.616;2022-07-29T08:53:36;101487.28;;;21.35;72.21
59103;BME280;43999;51.660;5.616;2022-07-29T08:56:05;101486.50;;;21.83;69.82
59103;BME280;43999;51.660;5.616;2022-07-29T08:58:34;101476.94;;;22.20;67.97
59103;BME280;43999;51.660;5.616;2022-07-29T09:01:04;101476.00;;;22.59;67.31
59103;BME280;43999;51.660;5.616;2022-07-29T09:03:38;101479.81;;;22.94;64.32
59103;BME280;43999;51.660;5.616;2022-07-29T09:06:07;101485.56;;;23.26;62.81
59103;BME280;43999;51.660;5.616;2022-07-29T09:08:35;101488.25;;;23.44;63.24
59103;BME280;43999;51.660;5.616;2022-07-29T09:11:02;101479.88;;;23.39;60.11
59103;BME280;43999;51.660;5.616;2022-07-29T09:13:31;101481.00;;;23.37;59.47
59103;BME280;43999;51.660;5.616;2022-07-29T09:15:59;101481.75;;;23.29;60.02
59103;BME280;43999;51.660;5.616;2022-07-29T09:18:41;101482.84;;;23.36;58.95
59103;BME280;43999;51.660;5.616;2022-07-29T09:21:16;101465.72;;;23.47;58.45
59103;BME280;43999;51.660;5.616;2022-07-29T09:24:10;101472.81;;;23.74;57.96
59103;BME280;43999;51.660;5.616;2022-07-29T09:26:44;101475.38;;;23.94;57.20
59103;BME280;43999;51.660;5.616;2022-07-29T09:29:22;101477.78;;;24.05;55.82
59103;BME280;43999;51.660;5.616;2022-07-29T09:31:52;101480.63;;;24.30;56.27
59103;BME280;43999;51.660;5.616;2022-07-29T09:34:27;101489.91;;;24.62;55.82
59103;BME280;43999;51.660;5.616;2022-07-29T09:36:58;101492.56;;;24.96;55.11
59103;BME280;43999;51.660;5.616;2022-07-29T09:39:35;101493.22;;;25.33;52.90
59103;BME280;43999;51.660;5.616;2022-07-29T09:42:06;101482.19;;;25.61;52.07
59103;BME280;43999;51.660;5.616;2022-07-29T09:44:49;101485.41;;;25.97;51.94
59103;BME280;43999;51.660;5.616;2022-07-29T09:47:18;101487.25;;;26.29;50.72
59103;BME280;43999;51.660;5.616;2022-07-29T09:50:00;101487.69;;;26.58;50.45
59103;BME280;43999;51.660;5.616;2022-07-29T09:52:29;101491.94;;;26.92;47.38
59103;BME280;43999;51.660;5.616;2022-07-29T09:55:08;101487.28;;;27.17;46.32
59103;BME280;43999;51.660;5.616;2022-07-29T09:57:45;101498.44;;;27.45;44.90
59103;BME280;43999;51.660;5.616;2022-07-29T10:00:17;101490.75;;;27.57;44.55
59103;BME280;43999;51.660;5.616;2022-07-29T10:02:47;101493.16;;;27.75;43.00
59103;BME280;43999;51.660;5.616;2022-07-29T10:05:25;101495.34;;;27.95;42.94
59103;BME280;43999;51.660;5.616;2022-07-29T10:08:03;101493.09;;;28.06;41.56
59103;BME280;43999;51.660;5.616;2022-07-29T10:10:32;101492.53;;;28.11;41.45
59103;BME280;43999;51.660;5.616;2022-07-29T10:13:12;101491.03;;;28.08;40.80
59103;BME280;43999;51.660;5.616;2022-07-29T10:15:44;101489.75;;;28.04;40.41
59103;BME280;43999;51.660;5.616;2022-07-29T10:18:14;101480.56;;;28.14;40.85
59103;BME280;43999;51.660;5.616;2022-07-29T10:20:44;101485.69;;;28.23;38.69
59103;BME280;43999;51.660;5.616;2022-07-29T10:23:12;101488.47;;;28.30;37.55
59103;BME280;43999;51.660;5.616;2022-07-29T10:25:39;101489.03;;;28.25;38.41
59103;BME280;43999;51.660;5.616;2022-07-29T10:28:12;101483.56;;;28.34;39.67
59103;BME280;43999;51.660;5.616;2022-07-29T10:30:43;101483.38;;;28.35;39.63
59103;BME280;43999;51.660;5.616;2022-07-29T10:37:08;101484.59;;;28.33;38.35
59103;BME280;43999;51.660;5.616;2022-07-29T10:40:47;101470.44;;;28.46;39.32
59103;BME280;43999;51.660;5.616;2022-07-29T10:43:47;101477.16;;;28.79;38.13
59103;BME280;43999;51.660;5.616;2022-07-29T10:46:18;101484.47;;;29.01;36.76
59103;BME280;43999;51.660;5.616;2022-07-29T10:49:12;101476.50;;;28.92;36.71
59103;BME280;43999;51.660;5.616;2022-07-29T10:52:09;101481.13;;;28.98;37.32
59103;BME280;43999;51.660;5.616;2022-07-29T11:00:29;101476.66;;;29.21;37.52
59103;BME280;43999;51.660;5.616;2022-07-29T11:02:57;101474.56;;;29.38;36.13
59103;BME280;43999;51.660;5.616;2022-07-29T11:05:56;101477.53;;;29.28;36.66
59103;BME280;43999;51.660;5.616;2022-07-29T11:08:26;101480.91;;;29.30;37.61
59103;BME280;43999;51.660;5.616;2022-07-29T11:13:55;101476.34;;;29.74;36.28
59103;BME280;43999;51.660;5.616;2022-07-29T11:16:23;101473.63;;;29.95;35.86
59103;BME280;43999;51.660;5.616;2022-07-29T11:21:57;101472.97;;;30.15;34.82
59103;BME280;43999;51.660;5.616;2022-07-29T11:24:28;101462.44;;;30.33;35.09
59103;BME280;43999;51.660;5.616;2022-07-29T11:27:08;101467.59;;;30.56;33.66
59103;BME280;43999;51.660;5.616;2022-07-29T11:29:56;101475.38;;;30.66;33.29
59103;BME280;43999;51.660;5.616;2022-07-29T11:32:42;101464.38;;;30.74;33.75
59103;BME280;43999;51.660;5.616;2022-07-29T11:35:20;101468.53;;;30.77;33.63
59103;BME280;43999;51.660;5.616;2022-07-29T11:38:27;101468.59;;;30.90;34.04
59103;BME280;43999;51.660;5.616;2022-07-29T11:41:27;101469.72;;;31.09;33.70
59103;BME280;43999;51.660;5.616;2022-07-29T11:44:00;101471.00;;;31.20;33.84
59103;BME280;43999;51.660;5.616;2022-07-29T11:46:49;101467.50;;;31.26;33.67
59103;BME280;43999;51.660;5.616;2022-07-29T11:49:25;101475.41;;;31.28;33.49
59103;BME280;43999;51.660;5.616;2022-07-29T11:51:59;101470.75;;;31.02;33.35
59103;BME280;43999;51.660;5.616;2022-07-29T11:54:34;101462.47;;;30.68;33.04
59103;BME280;43999;51.660;5.616;2022-07-29T11:57:22;101461.41;;;30.34;34.21
59103;BME280;43999;51.660;5.616;2022-07-29T12:00:08;101464.97;;;30.07;33.97
59103;BME280;43999;51.660;5.616;2022-07-29T12:02:43;101461.22;;;29.79;34.24
59103;BME280;43999;51.660;5.616;2022-07-29T12:05:14;101474.59;;;29.44;34.31
59103;BME280;43999;51.660;5.616;2022-07-29T12:08:17;101472.00;;;29.00;35.62
59103;BME280;43999;51.660;5.616;2022-07-29T12:10:50;101474.31;;;28.66;35.98
59103;BME280;43999;51.660;5.616;2022-07-29T12:13:20;101474.63;;;28.33;37.05
59103;BME280;43999;51.660;5.616;2022-07-29T12:15:56;101465.19;;;27.99;36.78
59103;BME280;43999;51.660;5.616;2022-07-29T12:18:26;101467.44;;;27.72;37.54
59103;BME280;43999;51.660;5.616;2022-07-29T12:20:59;101471.28;;;27.55;37.65
59103;BME280;43999;51.660;5.616;2022-07-29T12:23:31;101469.22;;;27.34;38.72
59103;BME280;43999;51.660;5.616;2022-07-29T12:26:04;101462.72;;;27.20;39.56
59103;BME280;43999;51.660;5.616;2022-07-29T12:28:38;101470.38;;;27.08;39.30
59103;BME280;43999;51.660;5.616;2022-07-29T12:31:14;101476.09;;;27.05;38.96
59103;BME280;43999;51.660;5.616;2022-07-29T12:34:02;101469.03;;;27.04;39.20
59103;BME280;43999;51.660;5.616;2022-07-29T12:36:30;101466.06;;;26.99;39.01
59103;BME280;43999;51.660;5.616;2022-07-29T12:38:57;101464.75;;;26.87;38.52
59103;BME280;43999;51.660;5.616;2022-07-29T12:41:27;101463.28;;;26.76;40.11
59103;BME280;43999;51.660;5.616;2022-07-29T12:43:56;101462.44;;;26.75;38.82
59103;BME280;43999;51.660;5.616;2022-07-29T12:46:23;101465.47;;;26.72;39.81
59103;BME280;43999;51.660;5.616;2022-07-29T12:48:52;101452.72;;;26.74;38.96
59103;BME280;43999;51.660;5.616;2022-07-29T12:51:39;101459.63;;;26.69;39.37
59103;BME280;43999;51.660;5.616;2022-07-29T12:54:09;101457.59;;;26.71;39.61
59103;BME280;43999;51.660;5.616;2022-07-29T12:56:39;101454.34;;;26.83;40.29
59103;BME280;43999;51.660;5.616;2022-07-29T12:59:20;101451.75;;;26.98;39.57
59103;BME280;43999;51.660;5.616;2022-07-29T13:01:51;101451.72;;;27.07;39.13
59103;BME280;43999;51.660;5.616;2022-07-29T13:04:31;101454.13;;;27.25;39.47
59103;BME280;43999;51.660;5.616;2022-07-29T13:07:05;101451.19;;;27.43;39.13
59103;BME280;43999;51.660;5.616;2022-07-29T13:09:42;101450.56;;;27.55;38.49
59103;BME280;43999;51.660;5.616;2022-07-29T13:12:13;101457.19;;;27.68;38.73
59103;BME280;43999;51.660;5.616;2022-07-29T13:14:44;101453.41;;;27.77;37.59
59103;BME280;43999;51.660;5.616;2022-07-29T13:19:49;101449.19;;;27.83;36.81
59103;BME280;43999;51.660;5.616;2022-07-29T13:22:20;101448.88;;;27.78;37.53
59103;BME280;43999;51.660;5.616;2022-07-29T13:24:50;101451.00;;;27.67;38.45
59103;BME280;43999;51.660;5.616;2022-07-29T13:27:28;101460.41;;;27.48;37.88
59103;BME280;43999;51.660;5.616;2022-07-29T13:30:02;101459.13;;;27.36;38.17
59103;BME280;43999;51.660;5.616;2022-07-29T13:32:32;101452.63;;;27.22;38.87
59103;BME280;43999;51.660;5.616;2022-07-29T13:35:08;101458.84;;;27.23;39.37
59103;BME280;43999;51.660;5.616;2022-07-29T13:37:36;101454.63;;;27.28;38.42
59103;BME280;43999;51.660;5.616;2022-07-29T13:40:07;101454.41;;;27.61;37.87